createdAt,value
2023-04-15T00:00:48.924Z,98.63
2023-04-15T00:05:50.243Z,99.04
2023-04-15T00:10:51.550Z,98.83
2023-04-15T00:15:53.296Z,99.61
2023-04-15T00:20:54.667Z,100.00
2023-04-15T00:25:56.542Z,100.00
2023-04-15T00:30:58.036Z,100.00
2023-04-15T00:35:59.391Z,100.00
2023-04-15T00:41:00.871Z,100.00
2023-04-15T00:46:03.983Z,100.00
2023-04-15T00:51:05.443Z,100.00
2023-04-15T00:56:07.222Z,100.00
2023-04-15T01:01:08.946Z,100.00
2023-04-15T01:06:10.818Z,100.00
2023-04-15T01:11:12.790Z,100.00
2023-04-15T01:16:14.263Z,100.00
2023-04-15T01:21:15.685Z,100.00
2023-04-15T01:26:17.519Z,100.00
2023-04-15T01:31:18.956Z,100.00
2023-04-15T01:36:20.300Z,100.00
2023-04-15T01:41:23.824Z,100.00
2023-04-15T01:46:25.254Z,100.00
2023-04-15T01:51:27.456Z,100.00
2023-04-15T01:56:28.877Z,100.00
2023-04-15T02:01:30.381Z,100.00
2023-04-15T02:06:31.802Z,100.00
2023-04-15T02:11:33.096Z,100.00
2023-04-15T02:16:34.562Z,100.00
2023-04-15T02:21:35.948Z,100.00
2023-04-15T02:26:37.259Z,100.00
2023-04-15T02:31:40.635Z,100.00
2023-04-15T02:36:42.050Z,100.00
2023-04-15T02:41:43.923Z,100.00
2023-04-15T02:46:46.689Z,100.00
2023-04-15T02:51:49.580Z,100.00
2023-04-15T02:56:51.003Z,100.00
2023-04-15T03:01:52.482Z,100.00
2023-04-15T03:06:53.857Z,100.00
2023-04-15T03:11:55.213Z,100.00
2023-04-15T03:16:56.573Z,100.00
2023-04-15T03:21:58.043Z,100.00
2023-04-15T03:26:59.463Z,100.00
2023-04-15T03:32:01.130Z,100.00
2023-04-15T03:37:02.415Z,100.00
2023-04-15T03:42:03.876Z,100.00
2023-04-15T03:47:05.262Z,100.00
2023-04-15T03:52:06.602Z,100.00
2023-04-15T03:57:07.914Z,100.00
2023-04-15T04:02:09.324Z,100.00
2023-04-15T04:07:15.064Z,100.00
2023-04-15T04:12:16.532Z,100.00
2023-04-15T04:17:17.981Z,100.00
2023-04-15T04:22:22.292Z,100.00
2023-04-15T04:27:23.576Z,100.00
2023-04-15T04:32:25.004Z,100.00
2023-04-15T04:37:26.576Z,100.00
2023-04-15T04:42:27.889Z,100.00
2023-04-15T04:47:30.169Z,100.00
2023-04-15T04:52:31.581Z,100.00
2023-04-15T04:57:32.890Z,100.00
2023-04-15T05:02:34.629Z,100.00
2023-04-15T05:07:36.236Z,100.00
2023-04-15T05:12:38.619Z,100.00
2023-04-15T05:17:40.006Z,100.00
2023-04-15T05:22:41.552Z,100.00
2023-04-15T05:27:42.941Z,100.00
2023-04-15T05:32:44.275Z,100.00
2023-04-15T05:37:45.929Z,98.30
2023-04-15T05:42:47.266Z,87.51
2023-04-15T05:47:50.823Z,80.84
2023-04-15T05:52:52.312Z,81.83
2023-04-15T05:57:53.672Z,84.24
2023-04-15T06:02:56.185Z,85.68
2023-04-15T06:07:57.667Z,87.77
2023-04-15T06:12:58.982Z,86.34
2023-04-15T06:18:00.337Z,85.29
2023-04-15T06:23:01.970Z,81.01
2023-04-15T06:28:03.435Z,76.10
2023-04-15T06:33:06.255Z,73.50
2023-04-15T06:38:07.567Z,67.69
2023-04-15T06:43:09.175Z,63.38
2023-04-15T06:48:10.542Z,60.89
2023-04-15T06:53:11.887Z,65.84
2023-04-15T06:58:13.211Z,58.17
2023-04-15T07:03:15.140Z,55.47
2023-04-15T07:08:16.557Z,52.40
2023-04-15T07:13:17.914Z,53.58
2023-04-15T07:18:19.233Z,53.69
2023-04-15T07:23:21.187Z,53.04
2023-04-15T07:28:22.506Z,51.34
2023-04-15T07:33:23.840Z,45.06
2023-04-15T07:38:25.842Z,48.40
2023-04-15T07:43:27.163Z,51.41
2023-04-15T07:48:28.474Z,52.85
2023-04-15T07:53:30.350Z,57.05
2023-04-15T07:58:31.680Z,60.29
2023-04-15T08:03:33.765Z,57.06
2023-04-15T08:08:35.653Z,57.38
2023-04-15T08:13:36.978Z,58.16
2023-04-15T08:18:38.296Z,50.87
2023-04-15T08:23:39.782Z,57.03
2023-04-15T08:28:41.655Z,55.01
2023-04-15T08:33:42.986Z,55.44
2023-04-15T08:38:44.656Z,50.50
2023-04-15T08:43:52.843Z,53.75
2023-04-15T08:48:56.626Z,51.33
2023-04-15T08:53:58.313Z,54.06
2023-04-15T08:59:00.601Z,55.15
2023-04-15T09:04:03.066Z,54.17
2023-04-15T09:09:04.465Z,54.18
2023-04-15T09:14:05.913Z,48.03
2023-04-15T09:19:34.544Z,46.59
2023-04-15T09:24:38.181Z,50.33
2023-04-15T09:29:41.354Z,45.85
2023-04-15T09:34:42.950Z,45.91
2023-04-15T09:39:51.969Z,43.38
2023-04-15T09:44:53.389Z,45.29
2023-04-15T09:49:58.616Z,43.79
2023-04-15T09:55:00.807Z,43.64
2023-04-15T10:00:06.543Z,40.17
2023-04-15T10:05:10.348Z,37.23
2023-04-15T10:10:11.718Z,33.88
2023-04-15T10:15:17.393Z,35.53
2023-04-15T10:20:19.535Z,34.71
2023-04-15T10:25:21.484Z,32.61
2023-04-15T10:30:23.246Z,30.54
2023-04-15T10:35:24.702Z,30.13
2023-04-15T10:40:27.695Z,30.47
2023-04-15T10:45:33.086Z,30.43
2023-04-15T10:50:34.762Z,31.82
2023-04-15T10:55:36.086Z,33.74
2023-04-15T11:00:37.506Z,32.72
2023-04-15T11:05:42.063Z,32.78
2023-04-15T11:10:43.422Z,32.59
2023-04-15T11:15:45.694Z,37.28
2023-04-15T11:20:48.094Z,39.57
2023-04-15T11:25:49.487Z,43.04
2023-04-15T11:30:50.928Z,41.74
2023-04-15T11:35:53.587Z,41.71
2023-04-15T11:40:54.930Z,41.99
2023-04-15T11:45:57.413Z,41.06
2023-04-15T11:50:59.781Z,41.77
2023-04-15T11:56:01.456Z,43.57
2023-04-15T12:01:02.897Z,47.50
2023-04-15T12:06:11.566Z,46.68
2023-04-15T12:11:12.901Z,48.28
2023-04-15T12:16:18.644Z,49.41
2023-04-15T12:21:20.610Z,50.15
2023-04-15T12:26:29.116Z,52.81
2023-04-15T12:31:30.849Z,51.73
2023-04-15T12:36:36.270Z,52.92
2023-04-15T12:41:37.957Z,54.12
2023-04-15T12:46:39.304Z,55.07
2023-04-15T12:51:40.855Z,57.76
2023-04-15T12:56:42.304Z,59.72
2023-04-15T13:01:43.985Z,60.43
2023-04-15T13:06:45.373Z,61.67
2023-04-15T13:11:46.730Z,63.27
2023-04-15T13:16:48.222Z,63.20
2023-04-15T13:21:49.618Z,66.63
2023-04-15T13:26:51.018Z,63.51
2023-04-15T13:31:52.476Z,63.71
2023-04-15T13:36:53.951Z,62.99
2023-04-15T13:41:55.992Z,63.40
2023-04-15T13:46:57.411Z,62.80
2023-04-15T13:51:58.718Z,64.38
2023-04-15T13:57:00.027Z,65.16
2023-04-15T14:02:01.573Z,66.05
2023-04-15T14:07:05.074Z,67.01
2023-04-15T14:12:06.727Z,67.22
2023-04-15T14:17:08.058Z,70.36
2023-04-15T14:22:09.371Z,69.90
2023-04-15T14:27:12.579Z,71.42
2023-04-15T14:32:15.227Z,70.78
2023-04-15T14:37:17.531Z,69.47
2023-04-15T14:42:18.914Z,71.13
2023-04-15T14:47:20.297Z,70.20
2023-04-15T14:52:21.742Z,72.10
2023-04-15T14:57:23.109Z,75.64
2023-04-15T15:02:37.553Z,79.14
2023-04-15T15:07:42.778Z,80.08
2023-04-15T15:12:44.068Z,82.68
2023-04-15T15:17:45.416Z,83.69
2023-04-15T15:22:46.733Z,83.20
2023-04-15T15:27:48.822Z,84.83
2023-04-15T15:32:50.287Z,85.54
2023-04-15T15:37:52.413Z,87.56
2023-04-15T15:42:53.781Z,89.91
2023-04-15T15:47:57.091Z,91.30
2023-04-15T15:52:58.751Z,91.78
2023-04-15T15:58:00.258Z,93.58
2023-04-15T16:03:07.188Z,94.29
2023-04-15T16:08:09.200Z,97.45
2023-04-15T16:13:10.743Z,98.92
2023-04-15T16:18:13.814Z,100.00
2023-04-15T16:23:16.539Z,100.00
2023-04-15T16:28:26.324Z,100.00
2023-04-15T16:33:28.539Z,100.00
2023-04-15T16:38:30.461Z,100.00
2023-04-15T16:43:31.775Z,100.00
2023-04-15T16:48:33.112Z,100.00
2023-04-15T16:53:34.517Z,100.00
2023-04-15T16:58:35.827Z,100.00
2023-04-15T17:03:37.501Z,100.00
2023-04-15T17:08:38.846Z,100.00
2023-04-15T17:13:40.336Z,100.00
2023-04-15T17:18:41.733Z,100.00
2023-04-15T17:23:43.089Z,100.00
2023-04-15T17:28:44.738Z,100.00
2023-04-15T17:33:58.807Z,100.00
2023-04-15T17:39:07.679Z,100.00
2023-04-15T17:44:09.085Z,100.00
2023-04-15T17:49:10.396Z,100.00
2023-04-15T17:54:11.712Z,100.00
2023-04-15T17:59:13.107Z,100.00
2023-04-15T18:04:14.556Z,100.00
2023-04-15T18:09:16.044Z,100.00
2023-04-15T18:14:30.563Z,100.00
2023-04-15T18:19:34.621Z,100.00
2023-04-15T18:24:36.037Z,100.00
2023-04-15T18:29:37.357Z,100.00
2023-04-15T18:34:38.758Z,100.00
2023-04-15T18:39:40.320Z,100.00
2023-04-15T18:44:41.624Z,100.00
2023-04-15T18:49:43.045Z,100.00
2023-04-15T18:54:44.355Z,100.00
2023-04-15T18:59:45.922Z,100.00
2023-04-15T19:04:47.277Z,100.00
2023-04-15T19:09:48.617Z,100.00
2023-04-15T19:14:49.931Z,100.00
2023-04-15T19:19:51.487Z,100.00
2023-04-15T19:24:52.844Z,100.00
2023-04-15T19:29:54.247Z,100.00
2023-04-15T19:34:55.590Z,100.00
2023-04-15T19:39:56.891Z,100.00
2023-04-15T19:44:58.270Z,100.00
2023-04-15T19:49:59.640Z,100.00
2023-04-15T19:55:01.044Z,100.00
2023-04-15T20:00:02.368Z,100.00
2023-04-15T20:05:03.785Z,100.00
2023-04-15T20:10:08.633Z,100.00
2023-04-15T20:15:14.491Z,100.00
2023-04-15T20:20:16.420Z,100.00
2023-04-15T20:25:17.894Z,100.00
2023-04-15T20:30:19.214Z,100.00
2023-04-15T20:35:20.717Z,100.00
2023-04-15T20:40:22.939Z,100.00
2023-04-15T20:45:24.277Z,100.00
2023-04-15T20:50:25.806Z,100.00
2023-04-15T20:55:28.366Z,100.00
2023-04-15T21:00:33.008Z,100.00
2023-04-15T21:05:34.353Z,100.00
2023-04-15T21:10:35.874Z,100.00
2023-04-15T21:15:37.226Z,100.00
2023-04-15T21:20:38.671Z,100.00
2023-04-15T21:25:40.014Z,100.00
2023-04-15T21:30:41.317Z,100.00
2023-04-15T21:35:42.633Z,100.00
2023-04-15T21:40:43.938Z,100.00
2023-04-15T21:46:20.749Z,100.00
2023-04-15T21:51:06.742Z,100.00
2023-04-15T21:56:08.765Z,100.00
2023-04-15T22:01:10.140Z,100.00
2023-04-15T22:06:13.547Z,100.00
2023-04-15T22:11:27.148Z,100.00
2023-04-15T22:16:29.250Z,100.00
2023-04-15T22:21:30.621Z,100.00
2023-04-15T22:26:31.938Z,100.00
2023-04-15T22:31:33.264Z,100.00
2023-04-15T22:36:34.586Z,100.00
2023-04-15T22:41:35.940Z,100.00
2023-04-15T22:46:38.304Z,100.00
2023-04-15T22:51:39.683Z,100.00
2023-04-15T22:56:40.992Z,100.00
2023-04-15T23:01:42.332Z,100.00
2023-04-15T23:06:43.655Z,100.00
2023-04-15T23:11:44.966Z,100.00
2023-04-15T23:16:46.347Z,100.00
2023-04-15T23:21:47.686Z,100.00
2023-04-15T23:26:49.020Z,100.00
2023-04-15T23:31:50.370Z,100.00
2023-04-15T23:36:51.693Z,100.00
2023-04-15T23:41:53.236Z,100.00
2023-04-15T23:46:54.597Z,100.00
2023-04-15T23:51:57.096Z,100.00
2023-04-15T23:56:58.448Z,100.00
